<?xml version="1.0" encoding="UTF-8" standalone="no" ?>
<gpx xmlns="http://www.topografix.com/GPX/1/1" xmlns:xsi="http://www.w3.org/2001/XMLSchema-instance" xsi:schemaLocation="http://www.topografix.com/GPX/1/1 http://www.topografix.com/GPX/1/1/gpx.xsd" version="1.1" creator="VisuGPX - https://www.visugpx.com">
  <metadata>
    <name>Cabanne du Bazet</name>
    <desc><![CDATA[Boucle au depart de portet d\'aspet ( village ) vers la cabane du bazet et retour par le col de bene]]></desc>
  </metadata>
  <trk>
    <name><![CDATA[ACTIVE LOG103502]]></name>
    <trkseg>
      <trkpt lat="42.93131" lon="0.8572">
        <ele>941.284</ele>
        <time>2014-01-18T09:35:02Z</time>
      </trkpt>
      <trkpt lat="42.93137" lon="0.85766">
        <ele>845.873</ele>
        <time>2014-01-18T09:37:29Z</time>
      </trkpt>
      <trkpt lat="42.93121" lon="0.85815">
        <ele>852.803</ele>
        <time>2014-01-18T09:38:19Z</time>
      </trkpt>
      <trkpt lat="42.93106" lon="0.85857">
        <ele>967.484</ele>
        <time>2014-01-18T09:40:28Z</time>
      </trkpt>
      <trkpt lat="42.93053" lon="0.85864">
        <ele>979.756</ele>
        <time>2014-01-18T09:41:59Z</time>
      </trkpt>
      <trkpt lat="42.9304" lon="0.85864">
        <ele>984.38</ele>
        <time>2014-01-18T09:42:33Z</time>
      </trkpt>
      <trkpt lat="42.9302" lon="0.85878">
        <ele>990.714</ele>
        <time>2014-01-18T09:43:33Z</time>
      </trkpt>
      <trkpt lat="42.93001" lon="0.85911">
        <ele>1001.525</ele>
        <time>2014-01-18T09:44:33Z</time>
      </trkpt>
      <trkpt lat="42.92985" lon="0.85919">
        <ele>1013.901</ele>
        <time>2014-01-18T09:47:13Z</time>
      </trkpt>
      <trkpt lat="42.92959" lon="0.85949">
        <ele>1027.526</ele>
        <time>2014-01-18T09:48:26Z</time>
      </trkpt>
      <trkpt lat="42.92938" lon="0.85986">
        <ele>1041.975</ele>
        <time>2014-01-18T09:50:38Z</time>
      </trkpt>
      <trkpt lat="42.9292" lon="0.85956">
        <ele>1049.477</ele>
        <time>2014-01-18T09:54:49Z</time>
      </trkpt>
      <trkpt lat="42.92896" lon="0.85943">
        <ele>1052.369</ele>
        <time>2014-01-18T09:55:34Z</time>
      </trkpt>
      <trkpt lat="42.9288" lon="0.85915">
        <ele>1057.801</ele>
        <time>2014-01-18T09:56:11Z</time>
      </trkpt>
      <trkpt lat="42.92861" lon="0.85907">
        <ele>1061.258</ele>
        <time>2014-01-18T09:56:44Z</time>
      </trkpt>
      <trkpt lat="42.92836" lon="0.85917">
        <ele>1063.758</ele>
        <time>2014-01-18T09:57:26Z</time>
      </trkpt>
      <trkpt lat="42.92809" lon="0.85938">
        <ele>1065.483</ele>
        <time>2014-01-18T09:58:10Z</time>
      </trkpt>
      <trkpt lat="42.92793" lon="0.85974">
        <ele>1072.613</ele>
        <time>2014-01-18T09:59:24Z</time>
      </trkpt>
      <trkpt lat="42.92783" lon="0.86">
        <ele>1076.961</ele>
        <time>2014-01-18T10:00:12Z</time>
      </trkpt>
      <trkpt lat="42.92774" lon="0.86061">
        <ele>1075.327</ele>
        <time>2014-01-18T10:01:24Z</time>
      </trkpt>
      <trkpt lat="42.92786" lon="0.86094">
        <ele>1080.097</ele>
        <time>2014-01-18T10:01:59Z</time>
      </trkpt>
      <trkpt lat="42.92781" lon="0.86124">
        <ele>1086.109</ele>
        <time>2014-01-18T10:02:49Z</time>
      </trkpt>
      <trkpt lat="42.92775" lon="0.86124">
        <ele>1085.524</ele>
        <time>2014-01-18T10:04:41Z</time>
      </trkpt>
      <trkpt lat="42.92765" lon="0.86164">
        <ele>1095.474</ele>
        <time>2014-01-18T10:06:30Z</time>
      </trkpt>
      <trkpt lat="42.92769" lon="0.86208">
        <ele>1099.11</ele>
        <time>2014-01-18T10:07:12Z</time>
      </trkpt>
      <trkpt lat="42.92783" lon="0.86239">
        <ele>1101.818</ele>
        <time>2014-01-18T10:07:49Z</time>
      </trkpt>
      <trkpt lat="42.92788" lon="0.86292">
        <ele>1114.021</ele>
        <time>2014-01-18T10:09:44Z</time>
      </trkpt>
      <trkpt lat="42.92787" lon="0.86322">
        <ele>1119.406</ele>
        <time>2014-01-18T10:10:40Z</time>
      </trkpt>
      <trkpt lat="42.92786" lon="0.86361">
        <ele>1124.865</ele>
        <time>2014-01-18T10:11:29Z</time>
      </trkpt>
      <trkpt lat="42.92776" lon="0.86383">
        <ele>1129.665</ele>
        <time>2014-01-18T10:12:21Z</time>
      </trkpt>
      <trkpt lat="42.92764" lon="0.86401">
        <ele>1132.701</ele>
        <time>2014-01-18T10:13:08Z</time>
      </trkpt>
      <trkpt lat="42.92764" lon="0.86424">
        <ele>1137.602</ele>
        <time>2014-01-18T10:15:10Z</time>
      </trkpt>
      <trkpt lat="42.92754" lon="0.86448">
        <ele>1142.212</ele>
        <time>2014-01-18T10:15:48Z</time>
      </trkpt>
      <trkpt lat="42.92763" lon="0.86473">
        <ele>1147.352</ele>
        <time>2014-01-18T10:16:20Z</time>
      </trkpt>
      <trkpt lat="42.92762" lon="0.86489">
        <ele>1151.644</ele>
        <time>2014-01-18T10:16:57Z</time>
      </trkpt>
      <trkpt lat="42.92745" lon="0.86485">
        <ele>1153.004</ele>
        <time>2014-01-18T10:18:59Z</time>
      </trkpt>
      <trkpt lat="42.92739" lon="0.8647">
        <ele>1153.545</ele>
        <time>2014-01-18T10:21:41Z</time>
      </trkpt>
      <trkpt lat="42.92726" lon="0.86433">
        <ele>1153.572</ele>
        <time>2014-01-18T10:22:18Z</time>
      </trkpt>
      <trkpt lat="42.92713" lon="0.86388">
        <ele>1159.298</ele>
        <time>2014-01-18T10:23:37Z</time>
      </trkpt>
      <trkpt lat="42.92702" lon="0.86359">
        <ele>1162.172</ele>
        <time>2014-01-18T10:24:08Z</time>
      </trkpt>
      <trkpt lat="42.92698" lon="0.8633">
        <ele>1164.412</ele>
        <time>2014-01-18T10:24:32Z</time>
      </trkpt>
      <trkpt lat="42.92693" lon="0.86304">
        <ele>1164.817</ele>
        <time>2014-01-18T10:25:11Z</time>
      </trkpt>
      <trkpt lat="42.92681" lon="0.86267">
        <ele>1163.252</ele>
        <time>2014-01-18T10:25:40Z</time>
      </trkpt>
      <trkpt lat="42.92671" lon="0.86242">
        <ele>1161.978</ele>
        <time>2014-01-18T10:26:02Z</time>
      </trkpt>
      <trkpt lat="42.92677" lon="0.86242">
        <ele>1161.798</ele>
        <time>2014-01-18T10:26:52Z</time>
      </trkpt>
      <trkpt lat="42.92681" lon="0.86262">
        <ele>1162.939</ele>
        <time>2014-01-18T10:27:12Z</time>
      </trkpt>
      <trkpt lat="42.92688" lon="0.86285">
        <ele>1164.177</ele>
        <time>2014-01-18T10:27:39Z</time>
      </trkpt>
      <trkpt lat="42.92689" lon="0.86312">
        <ele>1165.497</ele>
        <time>2014-01-18T10:27:58Z</time>
      </trkpt>
      <trkpt lat="42.92692" lon="0.86332">
        <ele>1164.88</ele>
        <time>2014-01-18T10:28:13Z</time>
      </trkpt>
      <trkpt lat="42.927" lon="0.86351">
        <ele>1163.226</ele>
        <time>2014-01-18T10:28:30Z</time>
      </trkpt>
      <trkpt lat="42.9271" lon="0.86374">
        <ele>1160.997</ele>
        <time>2014-01-18T10:28:52Z</time>
      </trkpt>
      <trkpt lat="42.9271" lon="0.86405">
        <ele>1161.19</ele>
        <time>2014-01-18T10:29:20Z</time>
      </trkpt>
      <trkpt lat="42.92707" lon="0.86431">
        <ele>1162.892</ele>
        <time>2014-01-18T10:29:48Z</time>
      </trkpt>
      <trkpt lat="42.92688" lon="0.86435">
        <ele>1171.815</ele>
        <time>2014-01-18T10:30:43Z</time>
      </trkpt>
      <trkpt lat="42.92664" lon="0.86422">
        <ele>1177.954</ele>
        <time>2014-01-18T10:31:54Z</time>
      </trkpt>
      <trkpt lat="42.92658" lon="0.86397">
        <ele>1184.521</ele>
        <time>2014-01-18T10:32:42Z</time>
      </trkpt>
      <trkpt lat="42.92664" lon="0.86369">
        <ele>1192.555</ele>
        <time>2014-01-18T10:33:30Z</time>
      </trkpt>
      <trkpt lat="42.92652" lon="0.86353">
        <ele>1193.193</ele>
        <time>2014-01-18T10:34:05Z</time>
      </trkpt>
      <trkpt lat="42.92643" lon="0.86332">
        <ele>1191.741</ele>
        <time>2014-01-18T10:35:18Z</time>
      </trkpt>
      <trkpt lat="42.92638" lon="0.86311">
        <ele>1195.063</ele>
        <time>2014-01-18T10:36:29Z</time>
      </trkpt>
      <trkpt lat="42.92636" lon="0.86282">
        <ele>1196.805</ele>
        <time>2014-01-18T10:37:04Z</time>
      </trkpt>
      <trkpt lat="42.92622" lon="0.86244">
        <ele>1198.521</ele>
        <time>2014-01-18T10:38:14Z</time>
      </trkpt>
      <trkpt lat="42.92611" lon="0.86216">
        <ele>1199.165</ele>
        <time>2014-01-18T10:38:43Z</time>
      </trkpt>
      <trkpt lat="42.926" lon="0.86188">
        <ele>1196.859</ele>
        <time>2014-01-18T10:39:33Z</time>
      </trkpt>
      <trkpt lat="42.92587" lon="0.86178">
        <ele>1192.509</ele>
        <time>2014-01-18T10:39:56Z</time>
      </trkpt>
      <trkpt lat="42.92569" lon="0.86172">
        <ele>1187.83</ele>
        <time>2014-01-18T10:40:35Z</time>
      </trkpt>
      <trkpt lat="42.9255" lon="0.8617">
        <ele>1186.376</ele>
        <time>2014-01-18T10:42:04Z</time>
      </trkpt>
      <trkpt lat="42.9252" lon="0.86149">
        <ele>1189.825</ele>
        <time>2014-01-18T10:42:56Z</time>
      </trkpt>
      <trkpt lat="42.92498" lon="0.86149">
        <ele>1191.068</ele>
        <time>2014-01-18T10:43:17Z</time>
      </trkpt>
      <trkpt lat="42.92487" lon="0.86116">
        <ele>1197.827</ele>
        <time>2014-01-18T10:43:54Z</time>
      </trkpt>
      <trkpt lat="42.92471" lon="0.86072">
        <ele>1208.097</ele>
        <time>2014-01-18T10:44:52Z</time>
      </trkpt>
      <trkpt lat="42.92464" lon="0.8607">
        <ele>1212.301</ele>
        <time>2014-01-18T10:45:52Z</time>
      </trkpt>
      <trkpt lat="42.92442" lon="0.86059">
        <ele>1217.629</ele>
        <time>2014-01-18T10:46:31Z</time>
      </trkpt>
      <trkpt lat="42.9244" lon="0.86033">
        <ele>1223.486</ele>
        <time>2014-01-18T10:47:03Z</time>
      </trkpt>
      <trkpt lat="42.92425" lon="0.86004">
        <ele>1227.101</ele>
        <time>2014-01-18T10:47:30Z</time>
      </trkpt>
      <trkpt lat="42.92409" lon="0.85974">
        <ele>1229.75</ele>
        <time>2014-01-18T10:47:56Z</time>
      </trkpt>
      <trkpt lat="42.92404" lon="0.85947">
        <ele>1234.596</ele>
        <time>2014-01-18T10:49:00Z</time>
      </trkpt>
      <trkpt lat="42.92395" lon="0.85898">
        <ele>1237.601</ele>
        <time>2014-01-18T10:49:40Z</time>
      </trkpt>
      <trkpt lat="42.92404" lon="0.8587">
        <ele>1238.398</ele>
        <time>2014-01-18T10:52:00Z</time>
      </trkpt>
      <trkpt lat="42.92398" lon="0.85839">
        <ele>1237.969</ele>
        <time>2014-01-18T10:52:30Z</time>
      </trkpt>
      <trkpt lat="42.92403" lon="0.85813">
        <ele>1238.988</ele>
        <time>2014-01-18T10:52:57Z</time>
      </trkpt>
      <trkpt lat="42.924" lon="0.85786">
        <ele>1239.665</ele>
        <time>2014-01-18T10:53:46Z</time>
      </trkpt>
      <trkpt lat="42.92401" lon="0.85761">
        <ele>1241.68</ele>
        <time>2014-01-18T10:54:08Z</time>
      </trkpt>
      <trkpt lat="42.92405" lon="0.85736">
        <ele>1241.314</ele>
        <time>2014-01-18T10:54:30Z</time>
      </trkpt>
      <trkpt lat="42.92405" lon="0.85705">
        <ele>1244.853</ele>
        <time>2014-01-18T10:54:57Z</time>
      </trkpt>
      <trkpt lat="42.92405" lon="0.85675">
        <ele>1247.592</ele>
        <time>2014-01-18T10:55:25Z</time>
      </trkpt>
      <trkpt lat="42.92407" lon="0.85653">
        <ele>1251.296</ele>
        <time>2014-01-18T10:55:54Z</time>
      </trkpt>
      <trkpt lat="42.9241" lon="0.85624">
        <ele>1257.227</ele>
        <time>2014-01-18T10:57:58Z</time>
      </trkpt>
      <trkpt lat="42.9241" lon="0.85595">
        <ele>1259.964</ele>
        <time>2014-01-18T10:58:28Z</time>
      </trkpt>
      <trkpt lat="42.92414" lon="0.85571">
        <ele>1260.921</ele>
        <time>2014-01-18T10:58:54Z</time>
      </trkpt>
      <trkpt lat="42.92417" lon="0.85539">
        <ele>1264.911</ele>
        <time>2014-01-18T10:59:30Z</time>
      </trkpt>
      <trkpt lat="42.92416" lon="0.85514">
        <ele>1266.726</ele>
        <time>2014-01-18T10:59:59Z</time>
      </trkpt>
      <trkpt lat="42.92418" lon="0.85488">
        <ele>1268.045</ele>
        <time>2014-01-18T11:00:21Z</time>
      </trkpt>
      <trkpt lat="42.92417" lon="0.85457">
        <ele>1271.188</ele>
        <time>2014-01-18T11:00:49Z</time>
      </trkpt>
      <trkpt lat="42.9241" lon="0.85425">
        <ele>1271.168</ele>
        <time>2014-01-18T11:01:19Z</time>
      </trkpt>
      <trkpt lat="42.9241" lon="0.8539">
        <ele>1267.622</ele>
        <time>2014-01-18T11:01:58Z</time>
      </trkpt>
      <trkpt lat="42.92402" lon="0.85364">
        <ele>1268.794</ele>
        <time>2014-01-18T11:02:23Z</time>
      </trkpt>
      <trkpt lat="42.92405" lon="0.85339">
        <ele>1275.326</ele>
        <time>2014-01-18T11:03:04Z</time>
      </trkpt>
      <trkpt lat="42.92412" lon="0.85317">
        <ele>1281.565</ele>
        <time>2014-01-18T11:03:41Z</time>
      </trkpt>
      <trkpt lat="42.92418" lon="0.85294">
        <ele>1286.729</ele>
        <time>2014-01-18T11:04:32Z</time>
      </trkpt>
      <trkpt lat="42.92426" lon="0.85283">
        <ele>1293.244</ele>
        <time>2014-01-18T11:05:10Z</time>
      </trkpt>
      <trkpt lat="42.92432" lon="0.8526">
        <ele>1298.985</ele>
        <time>2014-01-18T11:08:05Z</time>
      </trkpt>
      <trkpt lat="42.92448" lon="0.8523">
        <ele>1301.495</ele>
        <time>2014-01-18T11:08:34Z</time>
      </trkpt>
      <trkpt lat="42.92466" lon="0.85207">
        <ele>1300.413</ele>
        <time>2014-01-18T11:09:00Z</time>
      </trkpt>
      <trkpt lat="42.92486" lon="0.85183">
        <ele>1300.543</ele>
        <time>2014-01-18T11:09:46Z</time>
      </trkpt>
      <trkpt lat="42.92494" lon="0.85158">
        <ele>1301.257</ele>
        <time>2014-01-18T11:10:09Z</time>
      </trkpt>
      <trkpt lat="42.92498" lon="0.85129">
        <ele>1305.524</ele>
        <time>2014-01-18T11:10:36Z</time>
      </trkpt>
      <trkpt lat="42.92487" lon="0.85074">
        <ele>1317.772</ele>
        <time>2014-01-18T11:11:50Z</time>
      </trkpt>
      <trkpt lat="42.92488" lon="0.85031">
        <ele>1327.451</ele>
        <time>2014-01-18T11:13:23Z</time>
      </trkpt>
      <trkpt lat="42.92489" lon="0.85001">
        <ele>1340.303</ele>
        <time>2014-01-18T11:14:47Z</time>
      </trkpt>
      <trkpt lat="42.92504" lon="0.8498">
        <ele>1346.268</ele>
        <time>2014-01-18T11:15:34Z</time>
      </trkpt>
      <trkpt lat="42.92511" lon="0.84945">
        <ele>1353.732</ele>
        <time>2014-01-18T11:17:28Z</time>
      </trkpt>
      <trkpt lat="42.9253" lon="0.84909">
        <ele>1365.231</ele>
        <time>2014-01-18T11:19:24Z</time>
      </trkpt>
      <trkpt lat="42.92544" lon="0.84875">
        <ele>1377.018</ele>
        <time>2014-01-18T11:20:55Z</time>
      </trkpt>
      <trkpt lat="42.92546" lon="0.84855">
        <ele>1384.447</ele>
        <time>2014-01-18T11:21:47Z</time>
      </trkpt>
      <trkpt lat="42.92517" lon="0.84837">
        <ele>1379.644</ele>
        <time>2014-01-18T11:22:47Z</time>
      </trkpt>
      <trkpt lat="42.925" lon="0.84799">
        <ele>1379.661</ele>
        <time>2014-01-18T11:23:27Z</time>
      </trkpt>
      <trkpt lat="42.92494" lon="0.84756">
        <ele>1380.719</ele>
        <time>2014-01-18T11:24:38Z</time>
      </trkpt>
      <trkpt lat="42.92504" lon="0.84721">
        <ele>1381.911</ele>
        <time>2014-01-18T11:25:09Z</time>
      </trkpt>
      <trkpt lat="42.92496" lon="0.84685">
        <ele>1386.906</ele>
        <time>2014-01-18T11:25:58Z</time>
      </trkpt>
      <trkpt lat="42.92481" lon="0.84666">
        <ele>1384.34</ele>
        <time>2014-01-18T11:26:44Z</time>
      </trkpt>
      <trkpt lat="42.92478" lon="0.84637">
        <ele>1384.68</ele>
        <time>2014-01-18T11:27:16Z</time>
      </trkpt>
      <trkpt lat="42.92471" lon="0.84609">
        <ele>1390.049</ele>
        <time>2014-01-18T11:27:46Z</time>
      </trkpt>
      <trkpt lat="42.92469" lon="0.8458">
        <ele>1400.92</ele>
        <time>2014-01-18T11:29:48Z</time>
      </trkpt>
      <trkpt lat="42.92464" lon="0.8455">
        <ele>1405.896</ele>
        <time>2014-01-18T11:30:35Z</time>
      </trkpt>
      <trkpt lat="42.92458" lon="0.84526">
        <ele>1409.254</ele>
        <time>2014-01-18T11:31:39Z</time>
      </trkpt>
      <trkpt lat="42.92451" lon="0.845">
        <ele>1413.492</ele>
        <time>2014-01-18T11:32:12Z</time>
      </trkpt>
      <trkpt lat="42.92443" lon="0.84473">
        <ele>1416.626</ele>
        <time>2014-01-18T11:32:46Z</time>
      </trkpt>
      <trkpt lat="42.9242" lon="0.84455">
        <ele>1418.809</ele>
        <time>2014-01-18T11:33:27Z</time>
      </trkpt>
      <trkpt lat="42.92409" lon="0.8443">
        <ele>1423.409</ele>
        <time>2014-01-18T11:34:16Z</time>
      </trkpt>
      <trkpt lat="42.92408" lon="0.84401">
        <ele>1430.797</ele>
        <time>2014-01-18T11:35:00Z</time>
      </trkpt>
      <trkpt lat="42.9241" lon="0.84365">
        <ele>1438.741</ele>
        <time>2014-01-18T11:35:45Z</time>
      </trkpt>
      <trkpt lat="42.92418" lon="0.84355">
        <ele>1444.873</ele>
        <time>2014-01-18T11:36:28Z</time>
      </trkpt>
      <trkpt lat="42.92424" lon="0.84328">
        <ele>1452.777</ele>
        <time>2014-01-18T11:37:22Z</time>
      </trkpt>
      <trkpt lat="42.92414" lon="0.84308">
        <ele>1456.906</ele>
        <time>2014-01-18T11:37:51Z</time>
      </trkpt>
      <trkpt lat="42.92404" lon="0.84292">
        <ele>1461.382</ele>
        <time>2014-01-18T11:38:34Z</time>
      </trkpt>
      <trkpt lat="42.92386" lon="0.84288">
        <ele>1465.232</ele>
        <time>2014-01-18T11:39:03Z</time>
      </trkpt>
      <trkpt lat="42.92369" lon="0.84283">
        <ele>1468.282</ele>
        <time>2014-01-18T11:39:31Z</time>
      </trkpt>
      <trkpt lat="42.92358" lon="0.84279">
        <ele>1469.474</ele>
        <time>2014-01-18T11:40:21Z</time>
      </trkpt>
      <trkpt lat="42.92359" lon="0.84269">
        <ele>1470.408</ele>
        <time>2014-01-18T11:41:45Z</time>
      </trkpt>
      <trkpt lat="42.92351" lon="0.84282">
        <ele>1467.482</ele>
        <time>2014-01-18T11:42:14Z</time>
      </trkpt>
      <trkpt lat="42.92351" lon="0.8426">
        <ele>1468.185</ele>
        <time>2014-01-18T11:42:38Z</time>
      </trkpt>
      <trkpt lat="42.92357" lon="0.84236">
        <ele>1466.924</ele>
        <time>2014-01-18T11:43:00Z</time>
      </trkpt>
      <trkpt lat="42.9236" lon="0.84212">
        <ele>1465.068</ele>
        <time>2014-01-18T11:43:24Z</time>
      </trkpt>
    </trkseg>
  </trk>
</gpx>